sensor_id;sensor_type;location;lat;lon;timestamp;P1;durP1;ratioP1;P2;durP2;ratioP2
73779;SDS011;62093;37.614;15.072;2022-10-28T00:00:26;12.57;;;4.20;;
73779;SDS011;62093;37.614;15.072;2022-10-28T00:02:52;9.33;;;4.10;;
73779;SDS011;62093;37.614;15.072;2022-10-28T00:05:18;8.25;;;4.10;;
73779;SDS011;62093;37.614;15.072;2022-10-28T00:07:44;9.70;;;4.32;;
73779;SDS011;62093;37.614;15.072;2022-10-28T00:10:10;7.90;;;3.83;;
73779;SDS011;62093;37.614;15.072;2022-10-28T00:12:36;8.60;;;3.57;;
73779;SDS011;62093;37.614;15.072;2022-10-28T00:15:03;10.55;;;4.20;;
73779;SDS011;62093;37.614;15.072;2022-10-28T00:17:30;8.57;;;3.85;;
73779;SDS011;62093;37.614;15.072;2022-10-28T00:19:57;8.63;;;3.88;;
73779;SDS011;62093;37.614;15.072;2022-10-28T00:22:23;9.48;;;4.53;;
73779;SDS011;62093;37.614;15.072;2022-10-28T00:24:49;9.87;;;4.17;;
73779;SDS011;62093;37.614;15.072;2022-10-28T00:27:16;9.15;;;3.47;;
73779;SDS011;62093;37.614;15.072;2022-10-28T00:29:42;8.77;;;4.07;;
73779;SDS011;62093;37.614;15.072;2022-10-28T00:32:08;10.50;;;4.90;;
73779;SDS011;62093;37.614;15.072;2022-10-28T00:34:34;8.00;;;3.47;;
73779;SDS011;62093;37.614;15.072;2022-10-28T00:37:00;8.33;;;4.07;;
73779;SDS011;62093;37.614;15.072;2022-10-28T00:39:26;9.63;;;3.97;;
73779;SDS011;62093;37.614;15.072;2022-10-28T00:41:53;9.32;;;3.53;;
73779;SDS011;62093;37.614;15.072;2022-10-28T00:44:46;8.95;;;3.72;;
73779;SDS011;62093;37.614;15.072;2022-10-28T00:50:04;8.80;;;3.70;;
73779;SDS011;62093;37.614;15.072;2022-10-28T00:52:52;8.88;;;3.72;;
73779;SDS011;62093;37.614;15.072;2022-10-28T00:55:27;9.82;;;4.10;;
73779;SDS011;62093;37.614;15.072;2022-10-28T00:57:54;8.75;;;3.95;;
73779;SDS011;62093;37.614;15.072;2022-10-28T01:00:22;8.75;;;3.70;;
73779;SDS011;62093;37.614;15.072;2022-10-28T01:02:49;9.53;;;4.77;;
73779;SDS011;62093;37.614;15.072;2022-10-28T01:05:18;11.23;;;5.95;;
73779;SDS011;62093;37.614;15.072;2022-10-28T01:07:47;16.65;;;8.30;;
73779;SDS011;62093;37.614;15.072;2022-10-28T01:10:14;11.73;;;5.32;;
73779;SDS011;62093;37.614;15.072;2022-10-28T01:12:57;9.88;;;4.40;;
73779;SDS011;62093;37.614;15.072;2022-10-28T01:29:12;9.07;;;3.60;;
73779;SDS011;62093;37.614;15.072;2022-10-28T01:31:58;9.40;;;3.65;;
73779;SDS011;62093;37.614;15.072;2022-10-28T01:34:33;8.63;;;3.70;;
73779;SDS011;62093;37.614;15.072;2022-10-28T01:39:48;9.95;;;3.95;;
73779;SDS011;62093;37.614;15.072;2022-10-28T01:47:49;8.95;;;3.42;;
73779;SDS011;62093;37.614;15.072;2022-10-28T01:50:31;8.65;;;3.53;;
73779;SDS011;62093;37.614;15.072;2022-10-28T01:53:16;8.13;;;3.45;;
73779;SDS011;62093;37.614;15.072;2022-10-28T01:55:45;8.27;;;3.63;;
73779;SDS011;62093;37.614;15.072;2022-10-28T01:58:17;9.85;;;3.75;;
73779;SDS011;62093;37.614;15.072;2022-10-28T02:00:47;7.03;;;3.42;;
73779;SDS011;62093;37.614;15.072;2022-10-28T02:03:14;11.20;;;4.30;;
73779;SDS011;62093;37.614;15.072;2022-10-28T02:08:20;8.53;;;3.47;;
73779;SDS011;62093;37.614;15.072;2022-10-28T02:13:53;9.57;;;4.10;;
73779;SDS011;62093;37.614;15.072;2022-10-28T02:19:01;11.10;;;3.83;;
73779;SDS011;62093;37.614;15.072;2022-10-28T02:22:12;8.37;;;3.73;;
73779;SDS011;62093;37.614;15.072;2022-10-28T02:25:07;9.55;;;3.70;;
73779;SDS011;62093;37.614;15.072;2022-10-28T02:27:47;9.13;;;3.30;;
73779;SDS011;62093;37.614;15.072;2022-10-28T02:33:10;8.25;;;3.60;;
73779;SDS011;62093;37.614;15.072;2022-10-28T02:35:45;6.93;;;3.87;;
73779;SDS011;62093;37.614;15.072;2022-10-28T02:38:39;9.30;;;3.60;;
73779;SDS011;62093;37.614;15.072;2022-10-28T02:41:18;9.38;;;3.58;;
73779;SDS011;62093;37.614;15.072;2022-10-28T02:43:47;9.20;;;3.70;;
73779;SDS011;62093;37.614;15.072;2022-10-28T02:46:18;7.95;;;3.45;;
73779;SDS011;62093;37.614;15.072;2022-10-28T02:48:46;8.37;;;3.40;;
73779;SDS011;62093;37.614;15.072;2022-10-28T02:51:29;9.30;;;3.60;;
73779;SDS011;62093;37.614;15.072;2022-10-28T02:54:06;10.48;;;3.75;;
73779;SDS011;62093;37.614;15.072;2022-10-28T02:56:39;10.00;;;3.60;;
73779;SDS011;62093;37.614;15.072;2022-10-28T02:59:14;8.45;;;3.53;;
73779;SDS011;62093;37.614;15.072;2022-10-28T03:01:40;8.23;;;3.33;;
73779;SDS011;62093;37.614;15.072;2022-10-28T03:04:06;9.23;;;3.47;;
73779;SDS011;62093;37.614;15.072;2022-10-28T03:06:32;8.98;;;3.20;;
73779;SDS011;62093;37.614;15.072;2022-10-28T03:08:58;7.88;;;3.25;;
73779;SDS011;62093;37.614;15.072;2022-10-28T03:11:24;8.20;;;3.38;;
73779;SDS011;62093;37.614;15.072;2022-10-28T03:13:51;7.67;;;3.10;;
73779;SDS011;62093;37.614;15.072;2022-10-28T03:16:17;7.18;;;3.25;;
73779;SDS011;62093;37.614;15.072;2022-10-28T03:18:43;8.70;;;3.15;;
73779;SDS011;62093;37.614;15.072;2022-10-28T03:21:09;7.28;;;3.25;;
73779;SDS011;62093;37.614;15.072;2022-10-28T03:23:35;10.55;;;3.30;;
73779;SDS011;62093;37.614;15.072;2022-10-28T03:26:01;9.90;;;3.50;;
73779;SDS011;62093;37.614;15.072;2022-10-28T03:28:28;7.00;;;3.42;;
73779;SDS011;62093;37.614;15.072;2022-10-28T03:30:54;10.07;;;3.78;;
73779;SDS011;62093;37.614;15.072;2022-10-28T03:33:20;8.20;;;3.63;;
73779;SDS011;62093;37.614;15.072;2022-10-28T03:35:46;8.00;;;3.67;;
73779;SDS011;62093;37.614;15.072;2022-10-28T03:38:12;7.97;;;3.50;;
73779;SDS011;62093;37.614;15.072;2022-10-28T03:40:38;6.95;;;3.10;;
73779;SDS011;62093;37.614;15.072;2022-10-28T03:43:04;10.50;;;3.80;;
73779;SDS011;62093;37.614;15.072;2022-10-28T03:45:30;9.60;;;3.45;;
73779;SDS011;62093;37.614;15.072;2022-10-28T03:47:57;8.25;;;3.22;;
73779;SDS011;62093;37.614;15.072;2022-10-28T03:50:23;7.67;;;3.37;;
73779;SDS011;62093;37.614;15.072;2022-10-28T03:52:49;6.90;;;3.70;;
73779;SDS011;62093;37.614;15.072;2022-10-28T03:55:16;8.63;;;3.38;;
73779;SDS011;62093;37.614;15.072;2022-10-28T03:57:42;8.05;;;3.38;;
73779;SDS011;62093;37.614;15.072;2022-10-28T04:00:08;9.15;;;3.40;;
73779;SDS011;62093;37.614;15.072;2022-10-28T04:02:37;6.93;;;3.40;;
73779;SDS011;62093;37.614;15.072;2022-10-28T04:05:03;7.95;;;3.15;;
73779;SDS011;62093;37.614;15.072;2022-10-28T04:07:29;7.57;;;3.15;;
73779;SDS011;62093;37.614;15.072;2022-10-28T04:09:55;8.65;;;2.97;;
73779;SDS011;62093;37.614;15.072;2022-10-28T04:12:21;6.77;;;3.30;;
73779;SDS011;62093;37.614;15.072;2022-10-28T04:14:47;8.60;;;3.35;;
73779;SDS011;62093;37.614;15.072;2022-10-28T04:17:13;8.45;;;3.53;;
73779;SDS011;62093;37.614;15.072;2022-10-28T04:19:39;7.23;;;3.30;;
73779;SDS011;62093;37.614;15.072;2022-10-28T04:22:05;6.85;;;2.88;;
73779;SDS011;62093;37.614;15.072;2022-10-28T04:24:32;8.95;;;3.13;;
73779;SDS011;62093;37.614;15.072;2022-10-28T04:26:58;7.05;;;3.00;;
73779;SDS011;62093;37.614;15.072;2022-10-28T04:29:24;6.28;;;3.25;;
73779;SDS011;62093;37.614;15.072;2022-10-28T04:31:50;7.60;;;2.87;;
73779;SDS011;62093;37.614;15.072;2022-10-28T04:34:16;6.97;;;3.13;;
73779;SDS011;62093;37.614;15.072;2022-10-28T04:36:42;7.32;;;3.22;;
73779;SDS011;62093;37.614;15.072;2022-10-28T04:39:08;8.60;;;3.40;;
73779;SDS011;62093;37.614;15.072;2022-10-28T04:41:35;8.68;;;3.45;;
73779;SDS011;62093;37.614;15.072;2022-10-28T04:44:01;8.03;;;3.00;;
73779;SDS011;62093;37.614;15.072;2022-10-28T04:46:27;6.07;;;2.97;;
73779;SDS011;62093;37.614;15.072;2022-10-28T04:48:53;7.65;;;3.40;;
73779;SDS011;62093;37.614;15.072;2022-10-28T04:51:19;6.93;;;3.38;;
73779;SDS011;62093;37.614;15.072;2022-10-28T04:53:45;7.70;;;3.15;;
73779;SDS011;62093;37.614;15.072;2022-10-28T04:56:10;9.10;;;3.30;;
73779;SDS011;62093;37.614;15.072;2022-10-28T04:58:37;9.48;;;3.38;;
73779;SDS011;62093;37.614;15.072;2022-10-28T05:01:07;7.70;;;3.13;;
73779;SDS011;62093;37.614;15.072;2022-10-28T05:03:35;9.48;;;3.30;;
73779;SDS011;62093;37.614;15.072;2022-10-28T05:06:01;8.05;;;3.30;;
73779;SDS011;62093;37.614;15.072;2022-10-28T05:08:27;9.17;;;3.37;;
73779;SDS011;62093;37.614;15.072;2022-10-28T05:10:53;7.53;;;3.17;;
73779;SDS011;62093;37.614;15.072;2022-10-28T05:13:20;7.63;;;3.38;;
73779;SDS011;62093;37.614;15.072;2022-10-28T05:15:46;6.63;;;3.33;;
73779;SDS011;62093;37.614;15.072;2022-10-28T05:18:13;7.20;;;3.15;;
73779;SDS011;62093;37.614;15.072;2022-10-28T05:20:39;8.70;;;3.13;;
73779;SDS011;62093;37.614;15.072;2022-10-28T05:23:05;7.63;;;2.90;;
73779;SDS011;62093;37.614;15.072;2022-10-28T05:25:31;7.72;;;2.90;;
73779;SDS011;62093;37.614;15.072;2022-10-28T05:27:58;6.43;;;3.10;;
73779;SDS011;62093;37.614;15.072;2022-10-28T05:30:25;12.05;;;3.60;;
73779;SDS011;62093;37.614;15.072;2022-10-28T05:32:59;7.93;;;3.37;;
73779;SDS011;62093;37.614;15.072;2022-10-28T05:35:27;8.45;;;3.83;;
73779;SDS011;62093;37.614;15.072;2022-10-28T05:37:54;8.43;;;3.22;;
73779;SDS011;62093;37.614;15.072;2022-10-28T05:40:20;7.72;;;3.35;;
73779;SDS011;62093;37.614;15.072;2022-10-28T05:42:46;7.38;;;3.25;;
73779;SDS011;62093;37.614;15.072;2022-10-28T05:45:12;6.37;;;3.40;;
73779;SDS011;62093;37.614;15.072;2022-10-28T05:47:45;8.35;;;3.42;;
73779;SDS011;62093;37.614;15.072;2022-10-28T05:50:12;8.45;;;3.45;;
73779;SDS011;62093;37.614;15.072;2022-10-28T05:52:44;8.75;;;3.33;;
73779;SDS011;62093;37.614;15.072;2022-10-28T05:55:15;9.60;;;3.50;;
73779;SDS011;62093;37.614;15.072;2022-10-28T05:57:44;8.17;;;3.50;;
73779;SDS011;62093;37.614;15.072;2022-10-28T06:00:11;8.32;;;3.25;;
73779;SDS011;62093;37.614;15.072;2022-10-28T06:02:39;8.10;;;3.42;;
73779;SDS011;62093;37.614;15.072;2022-10-28T06:05:05;7.07;;;3.22;;
73779;SDS011;62093;37.614;15.072;2022-10-28T06:07:32;6.60;;;2.83;;
73779;SDS011;62093;37.614;15.072;2022-10-28T06:09:59;7.53;;;3.30;;
73779;SDS011;62093;37.614;15.072;2022-10-28T06:12:26;7.95;;;3.28;;
73779;SDS011;62093;37.614;15.072;2022-10-28T06:14:52;7.40;;;3.33;;
73779;SDS011;62093;37.614;15.072;2022-10-28T06:17:18;6.93;;;3.17;;
73779;SDS011;62093;37.614;15.072;2022-10-28T06:19:44;7.63;;;3.15;;
73779;SDS011;62093;37.614;15.072;2022-10-28T06:22:10;7.23;;;3.30;;
73779;SDS011;62093;37.614;15.072;2022-10-28T06:24:37;6.80;;;3.08;;
73779;SDS011;62093;37.614;15.072;2022-10-28T06:27:03;7.10;;;3.47;;
73779;SDS011;62093;37.614;15.072;2022-10-28T06:29:29;6.85;;;3.25;;
73779;SDS011;62093;37.614;15.072;2022-10-28T06:31:56;8.10;;;3.72;;
73779;SDS011;62093;37.614;15.072;2022-10-28T06:34:22;7.87;;;3.20;;
73779;SDS011;62093;37.614;15.072;2022-10-28T06:36:57;7.40;;;3.20;;
73779;SDS011;62093;37.614;15.072;2022-10-28T06:39:42;8.57;;;3.38;;
73779;SDS011;62093;37.614;15.072;2022-10-28T06:42:28;7.78;;;3.25;;
73779;SDS011;62093;37.614;15.072;2022-10-28T06:44:54;6.37;;;3.27;;
73779;SDS011;62093;37.614;15.072;2022-10-28T06:47:20;8.27;;;3.43;;
73779;SDS011;62093;37.614;15.072;2022-10-28T06:50:05;7.80;;;3.17;;
73779;SDS011;62093;37.614;15.072;2022-10-28T06:52:40;8.98;;;3.28;;
73779;SDS011;62093;37.614;15.072;2022-10-28T06:55:25;6.25;;;3.08;;
73779;SDS011;62093;37.614;15.072;2022-10-28T06:58:10;7.80;;;3.05;;
73779;SDS011;62093;37.614;15.072;2022-10-28T07:00:36;6.10;;;3.07;;
73779;SDS011;62093;37.614;15.072;2022-10-28T07:03:02;8.73;;;2.75;;
73779;SDS011;62093;37.614;15.072;2022-10-28T07:05:28;7.97;;;2.88;;
73779;SDS011;62093;37.614;15.072;2022-10-28T07:07:55;6.53;;;2.92;;
73779;SDS011;62093;37.614;15.072;2022-10-28T07:10:21;6.88;;;3.13;;
73779;SDS011;62093;37.614;15.072;2022-10-28T07:12:47;7.47;;;2.97;;
73779;SDS011;62093;37.614;15.072;2022-10-28T07:15:13;8.27;;;3.30;;
73779;SDS011;62093;37.614;15.072;2022-10-28T07:17:39;6.03;;;2.70;;
73779;SDS011;62093;37.614;15.072;2022-10-28T07:20:05;8.35;;;3.20;;
73779;SDS011;62093;37.614;15.072;2022-10-28T07:22:32;6.97;;;2.88;;
73779;SDS011;62093;37.614;15.072;2022-10-28T07:24:59;5.70;;;3.07;;
73779;SDS011;62093;37.614;15.072;2022-10-28T07:27:25;7.32;;;3.00;;
73779;SDS011;62093;37.614;15.072;2022-10-28T07:29:51;7.20;;;2.95;;
73779;SDS011;62093;37.614;15.072;2022-10-28T07:32:17;7.15;;;3.03;;
73779;SDS011;62093;37.614;15.072;2022-10-28T07:34:43;6.10;;;2.97;;
73779;SDS011;62093;37.614;15.072;2022-10-28T07:37:10;6.77;;;2.60;;
73779;SDS011;62093;37.614;15.072;2022-10-28T07:39:37;7.22;;;2.83;;
73779;SDS011;62093;37.614;15.072;2022-10-28T07:42:03;6.65;;;2.97;;
73779;SDS011;62093;37.614;15.072;2022-10-28T07:44:29;6.07;;;3.03;;
73779;SDS011;62093;37.614;15.072;2022-10-28T07:46:55;6.28;;;3.05;;
73779;SDS011;62093;37.614;15.072;2022-10-28T07:49:21;7.07;;;3.07;;
73779;SDS011;62093;37.614;15.072;2022-10-28T07:51:50;6.05;;;2.90;;
73779;SDS011;62093;37.614;15.072;2022-10-28T07:54:16;7.47;;;2.78;;
73779;SDS011;62093;37.614;15.072;2022-10-28T07:56:42;6.45;;;3.20;;
73779;SDS011;62093;37.614;15.072;2022-10-28T07:59:08;6.00;;;2.72;;
73779;SDS011;62093;37.614;15.072;2022-10-28T08:01:35;6.90;;;3.07;;
73779;SDS011;62093;37.614;15.072;2022-10-28T08:04:01;6.93;;;3.10;;
73779;SDS011;62093;37.614;15.072;2022-10-28T08:06:27;6.30;;;2.80;;
73779;SDS011;62093;37.614;15.072;2022-10-28T08:08:54;5.45;;;3.20;;
73779;SDS011;62093;37.614;15.072;2022-10-28T08:11:21;6.05;;;2.88;;
73779;SDS011;62093;37.614;15.072;2022-10-28T08:13:48;6.13;;;3.00;;
73779;SDS011;62093;37.614;15.072;2022-10-28T08:16:16;7.28;;;3.03;;
73779;SDS011;62093;37.614;15.072;2022-10-28T08:18:42;6.72;;;2.90;;
73779;SDS011;62093;37.614;15.072;2022-10-28T08:21:10;7.47;;;2.80;;
73779;SDS011;62093;37.614;15.072;2022-10-28T08:23:36;7.25;;;3.00;;
73779;SDS011;62093;37.614;15.072;2022-10-28T08:26:03;6.03;;;2.70;;
73779;SDS011;62093;37.614;15.072;2022-10-28T08:28:29;5.47;;;2.72;;
73779;SDS011;62093;37.614;15.072;2022-10-28T08:31:02;7.13;;;2.90;;
73779;SDS011;62093;37.614;15.072;2022-10-28T08:33:32;7.53;;;3.08;;
73779;SDS011;62093;37.614;15.072;2022-10-28T08:35:58;5.80;;;2.80;;
73779;SDS011;62093;37.614;15.072;2022-10-28T08:38:23;7.13;;;3.00;;
73779;SDS011;62093;37.614;15.072;2022-10-28T08:41:02;5.65;;;3.00;;
73779;SDS011;62093;37.614;15.072;2022-10-28T08:49:03;5.75;;;2.90;;
73779;SDS011;62093;37.614;15.072;2022-10-28T08:51:43;5.72;;;2.55;;
73779;SDS011;62093;37.614;15.072;2022-10-28T08:54:22;5.95;;;2.58;;
73779;SDS011;62093;37.614;15.072;2022-10-28T08:56:56;6.65;;;2.75;;
73779;SDS011;62093;37.614;15.072;2022-10-28T08:59:26;6.47;;;2.80;;
73779;SDS011;62093;37.614;15.072;2022-10-28T09:02:00;7.72;;;3.20;;
73779;SDS011;62093;37.614;15.072;2022-10-28T09:04:40;6.30;;;2.63;;
73779;SDS011;62093;37.614;15.072;2022-10-28T09:07:10;6.50;;;2.83;;
73779;SDS011;62093;37.614;15.072;2022-10-28T09:09:42;5.95;;;2.80;;
73779;SDS011;62093;37.614;15.072;2022-10-28T09:12:22;6.40;;;2.53;;
73779;SDS011;62093;37.614;15.072;2022-10-28T09:20:38;6.65;;;2.75;;
73779;SDS011;62093;37.614;15.072;2022-10-28T09:25:52;6.77;;;2.83;;
73779;SDS011;62093;37.614;15.072;2022-10-28T09:29:07;5.15;;;2.63;;
73779;SDS011;62093;37.614;15.072;2022-10-28T09:31:51;6.05;;;2.70;;
73779;SDS011;62093;37.614;15.072;2022-10-28T09:34:25;5.93;;;2.53;;
73779;SDS011;62093;37.614;15.072;2022-10-28T09:39:43;6.00;;;3.00;;
73779;SDS011;62093;37.614;15.072;2022-10-28T09:42:29;5.75;;;2.60;;
73779;SDS011;62093;37.614;15.072;2022-10-28T09:45:13;6.40;;;2.60;;
73779;SDS011;62093;37.614;15.072;2022-10-28T09:47:56;5.72;;;3.00;;
73779;SDS011;62093;37.614;15.072;2022-10-28T09:50:27;4.90;;;2.70;;
73779;SDS011;62093;37.614;15.072;2022-10-28T09:55:44;6.28;;;2.85;;
73779;SDS011;62093;37.614;15.072;2022-10-28T09:58:10;6.07;;;2.80;;
73779;SDS011;62093;37.614;15.072;2022-10-28T10:00:37;7.20;;;3.38;;
73779;SDS011;62093;37.614;15.072;2022-10-28T10:03:04;6.22;;;2.83;;
73779;SDS011;62093;37.614;15.072;2022-10-28T10:05:30;6.70;;;2.83;;
73779;SDS011;62093;37.614;15.072;2022-10-28T10:08:03;7.38;;;3.08;;
73779;SDS011;62093;37.614;15.072;2022-10-28T10:10:31;6.32;;;3.00;;
73779;SDS011;62093;37.614;15.072;2022-10-28T10:13:04;5.90;;;2.53;;
73779;SDS011;62093;37.614;15.072;2022-10-28T10:15:35;5.63;;;2.88;;
73779;SDS011;62093;37.614;15.072;2022-10-28T10:18:04;7.10;;;2.67;;
73779;SDS011;62093;37.614;15.072;2022-10-28T10:20:49;7.07;;;2.80;;
73779;SDS011;62093;37.614;15.072;2022-10-28T10:26:04;5.78;;;2.50;;
73779;SDS011;62093;37.614;15.072;2022-10-28T10:28:34;6.45;;;2.92;;
73779;SDS011;62093;37.614;15.072;2022-10-28T10:31:04;5.73;;;2.57;;
73779;SDS011;62093;37.614;15.072;2022-10-28T10:33:34;5.68;;;2.60;;
73779;SDS011;62093;37.614;15.072;2022-10-28T10:36:11;5.88;;;2.55;;
73779;SDS011;62093;37.614;15.072;2022-10-28T10:38:50;6.75;;;2.53;;
73779;SDS011;62093;37.614;15.072;2022-10-28T10:41:35;6.43;;;2.55;;
73779;SDS011;62093;37.614;15.072;2022-10-28T10:49:19;7.03;;;2.88;;
73779;SDS011;62093;37.614;15.072;2022-10-28T10:51:52;5.85;;;2.90;;
73779;SDS011;62093;37.614;15.072;2022-10-28T10:54:21;5.82;;;2.78;;
73779;SDS011;62093;37.614;15.072;2022-10-28T10:56:49;6.23;;;2.60;;
73779;SDS011;62093;37.614;15.072;2022-10-28T10:59:28;6.95;;;2.92;;
73779;SDS011;62093;37.614;15.072;2022-10-28T11:01:56;6.60;;;2.85;;
73779;SDS011;62093;37.614;15.072;2022-10-28T11:04:24;6.55;;;2.80;;
73779;SDS011;62093;37.614;15.072;2022-10-28T11:06:55;5.90;;;2.65;;
73779;SDS011;62093;37.614;15.072;2022-10-28T11:09:32;5.53;;;2.70;;
73779;SDS011;62093;37.614;15.072;2022-10-28T11:12:00;5.95;;;2.58;;
73779;SDS011;62093;37.614;15.072;2022-10-28T11:14:39;6.40;;;2.65;;
73779;SDS011;62093;37.614;15.072;2022-10-28T11:17:23;5.40;;;3.00;;
73779;SDS011;62093;37.614;15.072;2022-10-28T11:19:52;6.20;;;2.90;;
73779;SDS011;62093;37.614;15.072;2022-10-28T11:24:56;5.97;;;2.90;;
73779;SDS011;62093;37.614;15.072;2022-10-28T11:30:16;9.13;;;3.10;;
73779;SDS011;62093;37.614;15.072;2022-10-28T11:43:59;13.55;;;3.58;;
73779;SDS011;62093;37.614;15.072;2022-10-28T11:49:37;7.50;;;2.90;;
73779;SDS011;62093;37.614;15.072;2022-10-28T12:15:13;6.78;;;2.60;;
73779;SDS011;62093;37.614;15.072;2022-10-28T12:21:01;10.50;;;2.85;;
73779;SDS011;62093;37.614;15.072;2022-10-28T12:23:35;7.88;;;2.80;;
73779;SDS011;62093;37.614;15.072;2022-10-28T12:26:05;6.28;;;3.00;;
73779;SDS011;62093;37.614;15.072;2022-10-28T12:28:54;7.72;;;2.80;;
73779;SDS011;62093;37.614;15.072;2022-10-28T12:31:27;6.93;;;3.07;;
73779;SDS011;62093;37.614;15.072;2022-10-28T12:33:59;6.75;;;3.08;;
73779;SDS011;62093;37.614;15.072;2022-10-28T12:39:00;7.97;;;2.97;;
73779;SDS011;62093;37.614;15.072;2022-10-28T12:44:30;5.97;;;2.47;;
73779;SDS011;62093;37.614;15.072;2022-10-28T12:47:02;7.13;;;2.65;;
73779;SDS011;62093;37.614;15.072;2022-10-28T12:52:23;7.28;;;2.70;;
73779;SDS011;62093;37.614;15.072;2022-10-28T12:57:56;6.93;;;3.23;;
73779;SDS011;62093;37.614;15.072;2022-10-28T13:00:32;6.03;;;3.30;;
73779;SDS011;62093;37.614;15.072;2022-10-28T13:03:06;5.43;;;2.75;;
73779;SDS011;62093;37.614;15.072;2022-10-28T13:08:45;6.80;;;3.33;;
73779;SDS011;62093;37.614;15.072;2022-10-28T13:14:12;6.68;;;2.92;;
73779;SDS011;62093;37.614;15.072;2022-10-28T13:24:50;7.53;;;2.67;;
73779;SDS011;62093;37.614;15.072;2022-10-28T13:27:30;6.80;;;2.50;;
73779;SDS011;62093;37.614;15.072;2022-10-28T13:29:57;6.97;;;2.72;;
73779;SDS011;62093;37.614;15.072;2022-10-28T13:32:28;6.50;;;2.80;;
73779;SDS011;62093;37.614;15.072;2022-10-28T13:37:49;6.60;;;2.57;;
73779;SDS011;62093;37.614;15.072;2022-10-28T13:42:55;5.88;;;2.80;;
73779;SDS011;62093;37.614;15.072;2022-10-28T13:53:39;5.65;;;2.70;;
73779;SDS011;62093;37.614;15.072;2022-10-28T13:59:02;5.30;;;2.38;;
73779;SDS011;62093;37.614;15.072;2022-10-28T14:04:22;5.22;;;2.45;;
73779;SDS011;62093;37.614;15.072;2022-10-28T14:09:35;5.57;;;2.33;;
73779;SDS011;62093;37.614;15.072;2022-10-28T14:17:46;7.22;;;2.72;;
73779;SDS011;62093;37.614;15.072;2022-10-28T14:20:19;4.47;;;1.92;;
73779;SDS011;62093;37.614;15.072;2022-10-28T14:22:49;5.28;;;2.50;;
73779;SDS011;62093;37.614;15.072;2022-10-28T14:33:35;5.45;;;2.30;;
73779;SDS011;62093;37.614;15.072;2022-10-28T14:52:43;6.93;;;2.85;;
73779;SDS011;62093;37.614;15.072;2022-10-28T14:55:33;5.87;;;2.57;;
73779;SDS011;62093;37.614;15.072;2022-10-28T15:00:48;5.63;;;2.47;;
73779;SDS011;62093;37.614;15.072;2022-10-28T15:03:30;4.97;;;2.38;;
73779;SDS011;62093;37.614;15.072;2022-10-28T15:06:00;7.53;;;2.53;;
73779;SDS011;62093;37.614;15.072;2022-10-28T15:08:27;5.43;;;2.73;;
73779;SDS011;62093;37.614;15.072;2022-10-28T15:10:54;5.50;;;2.55;;
73779;SDS011;62093;37.614;15.072;2022-10-28T15:13:20;6.93;;;2.75;;
73779;SDS011;62093;37.614;15.072;2022-10-28T15:15:53;5.60;;;2.75;;
73779;SDS011;62093;37.614;15.072;2022-10-28T15:18:21;6.28;;;2.67;;
73779;SDS011;62093;37.614;15.072;2022-10-28T15:20:51;5.13;;;2.40;;
73779;SDS011;62093;37.614;15.072;2022-10-28T15:23:33;5.65;;;3.10;;
73779;SDS011;62093;37.614;15.072;2022-10-28T15:26:10;5.80;;;2.17;;
73779;SDS011;62093;37.614;15.072;2022-10-28T15:28:37;6.22;;;3.10;;
73779;SDS011;62093;37.614;15.072;2022-10-28T15:31:04;5.85;;;2.70;;
73779;SDS011;62093;37.614;15.072;2022-10-28T15:33:31;5.20;;;2.33;;
73779;SDS011;62093;37.614;15.072;2022-10-28T15:43:53;6.88;;;3.78;;
73779;SDS011;62093;37.614;15.072;2022-10-28T15:46:20;5.67;;;3.07;;
73779;SDS011;62093;37.614;15.072;2022-10-28T15:48:50;6.25;;;2.67;;
73779;SDS011;62093;37.614;15.072;2022-10-28T15:51:18;6.07;;;2.63;;
73779;SDS011;62093;37.614;15.072;2022-10-28T15:53:45;5.45;;;2.70;;
73779;SDS011;62093;37.614;15.072;2022-10-28T15:58:39;5.30;;;2.63;;
73779;SDS011;62093;37.614;15.072;2022-10-28T16:01:09;5.35;;;2.75;;
73779;SDS011;62093;37.614;15.072;2022-10-28T16:04:02;7.20;;;3.13;;
73779;SDS011;62093;37.614;15.072;2022-10-28T16:06:52;5.68;;;2.50;;
73779;SDS011;62093;37.614;15.072;2022-10-28T16:09:33;6.00;;;2.93;;
73779;SDS011;62093;37.614;15.072;2022-10-28T16:12:02;5.18;;;2.63;;
73779;SDS011;62093;37.614;15.072;2022-10-28T16:14:38;6.10;;;2.85;;
73779;SDS011;62093;37.614;15.072;2022-10-28T16:17:14;5.78;;;2.80;;
73779;SDS011;62093;37.614;15.072;2022-10-28T16:19:52;5.50;;;3.00;;
73779;SDS011;62093;37.614;15.072;2022-10-28T16:22:21;6.00;;;2.90;;
73779;SDS011;62093;37.614;15.072;2022-10-28T16:24:50;6.50;;;3.08;;
73779;SDS011;62093;37.614;15.072;2022-10-28T16:29:54;6.43;;;3.17;;
73779;SDS011;62093;37.614;15.072;2022-10-28T16:32:24;6.68;;;3.03;;
73779;SDS011;62093;37.614;15.072;2022-10-28T16:34:54;6.07;;;2.90;;
73779;SDS011;62093;37.614;15.072;2022-10-28T16:37:23;5.75;;;3.03;;
73779;SDS011;62093;37.614;15.072;2022-10-28T16:39:50;6.28;;;2.90;;
73779;SDS011;62093;37.614;15.072;2022-10-28T16:42:16;7.30;;;3.20;;
73779;SDS011;62093;37.614;15.072;2022-10-28T16:44:43;6.63;;;3.25;;
73779;SDS011;62093;37.614;15.072;2022-10-28T16:47:10;5.63;;;3.13;;
73779;SDS011;62093;37.614;15.072;2022-10-28T16:49:38;6.50;;;3.28;;
73779;SDS011;62093;37.614;15.072;2022-10-28T16:52:06;6.72;;;3.38;;
73779;SDS011;62093;37.614;15.072;2022-10-28T16:54:40;6.50;;;2.92;;
73779;SDS011;62093;37.614;15.072;2022-10-28T16:57:06;7.95;;;3.20;;
73779;SDS011;62093;37.614;15.072;2022-10-28T16:59:32;7.13;;;3.47;;
73779;SDS011;62093;37.614;15.072;2022-10-28T17:01:58;7.45;;;3.63;;
73779;SDS011;62093;37.614;15.072;2022-10-28T17:04:24;6.82;;;3.80;;
73779;SDS011;62093;37.614;15.072;2022-10-28T17:06:51;7.30;;;3.78;;
73779;SDS011;62093;37.614;15.072;2022-10-28T17:09:17;7.45;;;4.03;;
73779;SDS011;62093;37.614;15.072;2022-10-28T17:11:43;7.03;;;3.70;;
73779;SDS011;62093;37.614;15.072;2022-10-28T17:14:09;7.25;;;3.53;;
73779;SDS011;62093;37.614;15.072;2022-10-28T17:16:35;7.07;;;3.33;;
73779;SDS011;62093;37.614;15.072;2022-10-28T17:19:01;7.63;;;3.30;;
73779;SDS011;62093;37.614;15.072;2022-10-28T17:21:28;7.75;;;3.83;;
73779;SDS011;62093;37.614;15.072;2022-10-28T17:23:54;8.47;;;3.33;;
73779;SDS011;62093;37.614;15.072;2022-10-28T17:26:21;7.05;;;3.15;;
73779;SDS011;62093;37.614;15.072;2022-10-28T17:28:50;6.50;;;3.15;;
73779;SDS011;62093;37.614;15.072;2022-10-28T17:31:17;7.45;;;3.90;;
73779;SDS011;62093;37.614;15.072;2022-10-28T17:33:43;7.15;;;3.35;;
73779;SDS011;62093;37.614;15.072;2022-10-28T17:36:09;7.27;;;3.40;;
73779;SDS011;62093;37.614;15.072;2022-10-28T17:38:35;6.28;;;4.10;;
73779;SDS011;62093;37.614;15.072;2022-10-28T17:41:01;7.80;;;3.40;;
73779;SDS011;62093;37.614;15.072;2022-10-28T17:43:27;6.63;;;3.53;;
73779;SDS011;62093;37.614;15.072;2022-10-28T17:46:03;6.07;;;3.27;;
73779;SDS011;62093;37.614;15.072;2022-10-28T17:48:31;7.28;;;3.30;;
73779;SDS011;62093;37.614;15.072;2022-10-28T17:50:57;6.65;;;3.60;;
73779;SDS011;62093;37.614;15.072;2022-10-28T17:53:23;6.72;;;3.33;;
73779;SDS011;62093;37.614;15.072;2022-10-28T17:55:57;7.50;;;3.53;;
73779;SDS011;62093;37.614;15.072;2022-10-28T17:58:24;5.90;;;3.30;;
73779;SDS011;62093;37.614;15.072;2022-10-28T18:01:11;6.53;;;3.25;;
73779;SDS011;62093;37.614;15.072;2022-10-28T18:03:37;8.57;;;3.70;;
73779;SDS011;62093;37.614;15.072;2022-10-28T18:06:04;6.95;;;3.30;;
73779;SDS011;62093;37.614;15.072;2022-10-28T18:08:32;6.38;;;3.40;;
73779;SDS011;62093;37.614;15.072;2022-10-28T18:10:59;6.70;;;3.83;;
73779;SDS011;62093;37.614;15.072;2022-10-28T18:13:25;8.05;;;4.10;;